sensor_id;sensor_type;location;lat;lon;timestamp;P1;durP1;ratioP1;P2;durP2;ratioP2
74177;SDS011;62540;48.456;-4.456;2023-04-03T00:00:22;12.25;;;11.25;;
74177;SDS011;62540;48.456;-4.456;2023-04-03T00:02:48;12.75;;;10.00;;
74177;SDS011;62540;48.456;-4.456;2023-04-03T00:05:13;10.00;;;9.25;;
74177;SDS011;62540;48.456;-4.456;2023-04-03T00:07:38;10.75;;;10.00;;
74177;SDS011;62540;48.456;-4.456;2023-04-03T00:10:04;11.00;;;9.00;;
74177;SDS011;62540;48.456;-4.456;2023-04-03T00:12:30;9.00;;;8.00;;
74177;SDS011;62540;48.456;-4.456;2023-04-03T00:14:55;9.00;;;8.75;;
74177;SDS011;62540;48.456;-4.456;2023-04-03T00:17:20;13.50;;;10.75;;
74177;SDS011;62540;48.456;-4.456;2023-04-03T00:19:46;10.00;;;9.25;;
74177;SDS011;62540;48.456;-4.456;2023-04-03T00:22:11;11.75;;;10.00;;
74177;SDS011;62540;48.456;-4.456;2023-04-03T00:24:37;10.25;;;6.75;;
74177;SDS011;62540;48.456;-4.456;2023-04-03T00:27:02;11.50;;;11.50;;
74177;SDS011;62540;48.456;-4.456;2023-04-03T00:29:28;9.00;;;9.00;;
74177;SDS011;62540;48.456;-4.456;2023-04-03T00:31:53;8.25;;;8.00;;
74177;SDS011;62540;48.456;-4.456;2023-04-03T00:34:18;11.25;;;10.75;;
74177;SDS011;62540;48.456;-4.456;2023-04-03T00:36:44;11.00;;;10.25;;
74177;SDS011;62540;48.456;-4.456;2023-04-03T00:39:10;9.75;;;8.00;;
74177;SDS011;62540;48.456;-4.456;2023-04-03T00:41:35;11.00;;;10.25;;
74177;SDS011;62540;48.456;-4.456;2023-04-03T00:44:16;10.25;;;9.50;;
74177;SDS011;62540;48.456;-4.456;2023-04-03T00:46:57;9.75;;;9.00;;
74177;SDS011;62540;48.456;-4.456;2023-04-03T00:49:23;10.50;;;9.50;;
74177;SDS011;62540;48.456;-4.456;2023-04-03T00:51:49;11.50;;;11.00;;
74177;SDS011;62540;48.456;-4.456;2023-04-03T00:54:14;12.00;;;10.25;;
74177;SDS011;62540;48.456;-4.456;2023-04-03T00:56:40;10.50;;;9.50;;
74177;SDS011;62540;48.456;-4.456;2023-04-03T00:59:16;13.00;;;10.75;;
74177;SDS011;62540;48.456;-4.456;2023-04-03T01:01:48;11.25;;;9.75;;
74177;SDS011;62540;48.456;-4.456;2023-04-03T01:04:31;11.00;;;9.00;;
74177;SDS011;62540;48.456;-4.456;2023-04-03T01:06:59;10.50;;;9.00;;
74177;SDS011;62540;48.456;-4.456;2023-04-03T01:09:28;8.00;;;7.50;;
74177;SDS011;62540;48.456;-4.456;2023-04-03T01:11:54;10.50;;;9.75;;
74177;SDS011;62540;48.456;-4.456;2023-04-03T01:14:38;9.00;;;8.50;;
74177;SDS011;62540;48.456;-4.456;2023-04-03T01:17:03;10.25;;;8.25;;
74177;SDS011;62540;48.456;-4.456;2023-04-03T01:19:46;7.50;;;7.00;;
74177;SDS011;62540;48.456;-4.456;2023-04-03T01:22:25;8.75;;;8.25;;
74177;SDS011;62540;48.456;-4.456;2023-04-03T01:25:00;11.75;;;8.75;;
74177;SDS011;62540;48.456;-4.456;2023-04-03T01:27:26;5.25;;;5.25;;
74177;SDS011;62540;48.456;-4.456;2023-04-03T01:29:52;8.25;;;8.25;;
74177;SDS011;62540;48.456;-4.456;2023-04-03T01:32:18;7.00;;;7.00;;
74177;SDS011;62540;48.456;-4.456;2023-04-03T01:34:43;10.00;;;7.00;;
74177;SDS011;62540;48.456;-4.456;2023-04-03T01:37:08;8.00;;;7.25;;
74177;SDS011;62540;48.456;-4.456;2023-04-03T01:39:34;7.00;;;6.00;;
74177;SDS011;62540;48.456;-4.456;2023-04-03T01:41:59;8.00;;;7.75;;
74177;SDS011;62540;48.456;-4.456;2023-04-03T01:44:25;8.00;;;8.00;;
74177;SDS011;62540;48.456;-4.456;2023-04-03T01:46:50;6.50;;;6.25;;
74177;SDS011;62540;48.456;-4.456;2023-04-03T01:49:16;10.00;;;8.75;;
74177;SDS011;62540;48.456;-4.456;2023-04-03T01:51:41;5.25;;;5.00;;
74177;SDS011;62540;48.456;-4.456;2023-04-03T01:54:07;5.50;;;5.50;;
74177;SDS011;62540;48.456;-4.456;2023-04-03T01:56:32;7.00;;;7.00;;
74177;SDS011;62540;48.456;-4.456;2023-04-03T01:58:57;6.25;;;6.25;;
74177;SDS011;62540;48.456;-4.456;2023-04-03T02:01:23;8.50;;;7.25;;
74177;SDS011;62540;48.456;-4.456;2023-04-03T02:03:48;5.75;;;4.25;;
74177;SDS011;62540;48.456;-4.456;2023-04-03T02:06:14;8.00;;;7.50;;
74177;SDS011;62540;48.456;-4.456;2023-04-03T02:08:39;6.00;;;5.25;;
74177;SDS011;62540;48.456;-4.456;2023-04-03T02:11:06;5.00;;;3.25;;
74177;SDS011;62540;48.456;-4.456;2023-04-03T02:13:32;6.25;;;5.25;;
74177;SDS011;62540;48.456;-4.456;2023-04-03T02:15:57;6.75;;;6.75;;
74177;SDS011;62540;48.456;-4.456;2023-04-03T02:18:23;9.00;;;7.25;;
74177;SDS011;62540;48.456;-4.456;2023-04-03T02:20:49;8.25;;;8.00;;
74177;SDS011;62540;48.456;-4.456;2023-04-03T02:23:14;8.00;;;7.00;;
74177;SDS011;62540;48.456;-4.456;2023-04-03T02:25:40;9.75;;;7.50;;
74177;SDS011;62540;48.456;-4.456;2023-04-03T02:28:05;8.75;;;7.50;;
74177;SDS011;62540;48.456;-4.456;2023-04-03T02:30:31;5.00;;;4.25;;
74177;SDS011;62540;48.456;-4.456;2023-04-03T02:32:56;10.25;;;8.50;;
74177;SDS011;62540;48.456;-4.456;2023-04-03T02:35:22;8.00;;;7.25;;
74177;SDS011;62540;48.456;-4.456;2023-04-03T02:37:47;8.75;;;6.75;;
74177;SDS011;62540;48.456;-4.456;2023-04-03T02:40:13;10.25;;;9.25;;
74177;SDS011;62540;48.456;-4.456;2023-04-03T02:42:38;7.75;;;4.75;;
74177;SDS011;62540;48.456;-4.456;2023-04-03T02:45:04;6.00;;;5.00;;
74177;SDS011;62540;48.456;-4.456;2023-04-03T02:47:30;8.50;;;8.50;;
74177;SDS011;62540;48.456;-4.456;2023-04-03T02:49:55;7.50;;;6.50;;
74177;SDS011;62540;48.456;-4.456;2023-04-03T02:52:20;8.00;;;6.50;;
74177;SDS011;62540;48.456;-4.456;2023-04-03T02:54:46;9.00;;;7.00;;
74177;SDS011;62540;48.456;-4.456;2023-04-03T02:57:14;7.50;;;6.00;;
74177;SDS011;62540;48.456;-4.456;2023-04-03T02:59:40;7.00;;;7.00;;
74177;SDS011;62540;48.456;-4.456;2023-04-03T03:02:06;7.25;;;6.25;;
74177;SDS011;62540;48.456;-4.456;2023-04-03T03:04:32;7.25;;;6.50;;
74177;SDS011;62540;48.456;-4.456;2023-04-03T03:06:58;7.50;;;7.50;;
74177;SDS011;62540;48.456;-4.456;2023-04-03T03:09:23;8.75;;;6.25;;
74177;SDS011;62540;48.456;-4.456;2023-04-03T03:11:50;7.75;;;7.00;;
74177;SDS011;62540;48.456;-4.456;2023-04-03T03:14:15;8.50;;;6.25;;
74177;SDS011;62540;48.456;-4.456;2023-04-03T03:16:40;8.25;;;7.00;;
74177;SDS011;62540;48.456;-4.456;2023-04-03T03:19:06;7.75;;;7.00;;
74177;SDS011;62540;48.456;-4.456;2023-04-03T03:21:31;10.25;;;7.75;;
74177;SDS011;62540;48.456;-4.456;2023-04-03T03:23:57;14.00;;;10.25;;
74177;SDS011;62540;48.456;-4.456;2023-04-03T03:26:22;11.00;;;6.50;;
74177;SDS011;62540;48.456;-4.456;2023-04-03T03:28:48;7.50;;;5.50;;
74177;SDS011;62540;48.456;-4.456;2023-04-03T03:31:14;10.75;;;8.00;;
74177;SDS011;62540;48.456;-4.456;2023-04-03T03:33:40;9.00;;;7.00;;
74177;SDS011;62540;48.456;-4.456;2023-04-03T03:36:05;10.00;;;10.00;;
74177;SDS011;62540;48.456;-4.456;2023-04-03T03:38:31;6.00;;;6.00;;
74177;SDS011;62540;48.456;-4.456;2023-04-03T03:40:56;10.25;;;8.25;;
74177;SDS011;62540;48.456;-4.456;2023-04-03T03:43:22;10.00;;;8.50;;
74177;SDS011;62540;48.456;-4.456;2023-04-03T03:45:51;7.75;;;5.75;;
74177;SDS011;62540;48.456;-4.456;2023-04-03T03:48:18;8.25;;;7.50;;
74177;SDS011;62540;48.456;-4.456;2023-04-03T03:50:44;11.25;;;9.25;;
74177;SDS011;62540;48.456;-4.456;2023-04-03T03:53:09;8.50;;;7.25;;
74177;SDS011;62540;48.456;-4.456;2023-04-03T03:55:34;8.25;;;7.00;;
74177;SDS011;62540;48.456;-4.456;2023-04-03T03:58:00;8.00;;;5.50;;
74177;SDS011;62540;48.456;-4.456;2023-04-03T04:00:26;5.50;;;5.50;;
74177;SDS011;62540;48.456;-4.456;2023-04-03T04:02:52;5.00;;;5.00;;
74177;SDS011;62540;48.456;-4.456;2023-04-03T04:05:18;6.00;;;5.50;;
74177;SDS011;62540;48.456;-4.456;2023-04-03T04:07:43;8.75;;;6.75;;
74177;SDS011;62540;48.456;-4.456;2023-04-03T04:10:09;5.00;;;4.00;;
74177;SDS011;62540;48.456;-4.456;2023-04-03T04:12:34;4.00;;;4.00;;
74177;SDS011;62540;48.456;-4.456;2023-04-03T04:15:00;10.25;;;8.00;;
74177;SDS011;62540;48.456;-4.456;2023-04-03T04:17:26;6.25;;;5.50;;
74177;SDS011;62540;48.456;-4.456;2023-04-03T04:19:51;8.00;;;7.25;;
74177;SDS011;62540;48.456;-4.456;2023-04-03T04:22:17;9.00;;;7.25;;
74177;SDS011;62540;48.456;-4.456;2023-04-03T04:24:42;5.25;;;5.00;;
74177;SDS011;62540;48.456;-4.456;2023-04-03T04:27:07;6.75;;;6.25;;
74177;SDS011;62540;48.456;-4.456;2023-04-03T04:29:33;5.00;;;5.00;;
74177;SDS011;62540;48.456;-4.456;2023-04-03T04:32:01;7.75;;;6.00;;
74177;SDS011;62540;48.456;-4.456;2023-04-03T04:34:27;5.00;;;4.75;;
74177;SDS011;62540;48.456;-4.456;2023-04-03T04:36:53;6.75;;;5.25;;
74177;SDS011;62540;48.456;-4.456;2023-04-03T04:39:18;8.75;;;6.75;;
74177;SDS011;62540;48.456;-4.456;2023-04-03T04:41:43;6.00;;;5.75;;
74177;SDS011;62540;48.456;-4.456;2023-04-03T04:44:09;8.75;;;6.00;;
74177;SDS011;62540;48.456;-4.456;2023-04-03T04:46:34;5.25;;;5.00;;
74177;SDS011;62540;48.456;-4.456;2023-04-03T04:49:00;7.00;;;6.50;;
74177;SDS011;62540;48.456;-4.456;2023-04-03T04:51:25;8.00;;;7.00;;
74177;SDS011;62540;48.456;-4.456;2023-04-03T04:53:51;7.75;;;6.25;;
74177;SDS011;62540;48.456;-4.456;2023-04-03T04:56:16;5.50;;;4.50;;
74177;SDS011;62540;48.456;-4.456;2023-04-03T04:58:42;6.00;;;5.00;;
74177;SDS011;62540;48.456;-4.456;2023-04-03T05:01:08;5.00;;;4.00;;
74177;SDS011;62540;48.456;-4.456;2023-04-03T05:03:35;5.50;;;5.50;;
74177;SDS011;62540;48.456;-4.456;2023-04-03T05:06:01;8.00;;;7.00;;
74177;SDS011;62540;48.456;-4.456;2023-04-03T05:08:27;7.00;;;5.50;;
74177;SDS011;62540;48.456;-4.456;2023-04-03T05:10:52;7.00;;;6.25;;
74177;SDS011;62540;48.456;-4.456;2023-04-03T05:13:18;5.50;;;5.00;;
74177;SDS011;62540;48.456;-4.456;2023-04-03T05:15:44;7.00;;;5.75;;
74177;SDS011;62540;48.456;-4.456;2023-04-03T05:18:10;5.00;;;4.00;;
74177;SDS011;62540;48.456;-4.456;2023-04-03T05:20:36;7.25;;;5.00;;
74177;SDS011;62540;48.456;-4.456;2023-04-03T05:23:02;8.00;;;6.75;;
74177;SDS011;62540;48.456;-4.456;2023-04-03T05:25:27;6.25;;;5.25;;
74177;SDS011;62540;48.456;-4.456;2023-04-03T05:27:53;5.00;;;5.00;;
74177;SDS011;62540;48.456;-4.456;2023-04-03T05:30:18;5.00;;;4.00;;
74177;SDS011;62540;48.456;-4.456;2023-04-03T05:32:44;6.50;;;5.50;;
74177;SDS011;62540;48.456;-4.456;2023-04-03T05:35:10;5.00;;;4.00;;
74177;SDS011;62540;48.456;-4.456;2023-04-03T05:37:36;5.00;;;5.00;;
74177;SDS011;62540;48.456;-4.456;2023-04-03T05:40:02;4.00;;;4.00;;
74177;SDS011;62540;48.456;-4.456;2023-04-03T05:42:29;2.00;;;2.00;;
74177;SDS011;62540;48.456;-4.456;2023-04-03T05:44:54;5.00;;;4.00;;
74177;SDS011;62540;48.456;-4.456;2023-04-03T05:47:20;5.00;;;5.00;;
74177;SDS011;62540;48.456;-4.456;2023-04-03T05:49:45;4.00;;;4.00;;
74177;SDS011;62540;48.456;-4.456;2023-04-03T05:52:22;4.75;;;3.75;;
74177;SDS011;62540;48.456;-4.456;2023-04-03T05:54:52;5.25;;;4.50;;
74177;SDS011;62540;48.456;-4.456;2023-04-03T05:57:18;4.00;;;4.00;;
74177;SDS011;62540;48.456;-4.456;2023-04-03T05:59:44;4.50;;;4.00;;
74177;SDS011;62540;48.456;-4.456;2023-04-03T06:02:15;4.75;;;4.00;;
74177;SDS011;62540;48.456;-4.456;2023-04-03T06:04:43;5.00;;;4.00;;
74177;SDS011;62540;48.456;-4.456;2023-04-03T06:07:12;4.75;;;4.75;;
74177;SDS011;62540;48.456;-4.456;2023-04-03T06:09:39;5.75;;;4.00;;
74177;SDS011;62540;48.456;-4.456;2023-04-03T06:12:04;5.00;;;5.00;;
74177;SDS011;62540;48.456;-4.456;2023-04-03T06:14:30;5.25;;;4.25;;
74177;SDS011;62540;48.456;-4.456;2023-04-03T06:16:55;5.50;;;5.50;;
74177;SDS011;62540;48.456;-4.456;2023-04-03T06:19:21;6.75;;;5.50;;
74177;SDS011;62540;48.456;-4.456;2023-04-03T06:21:47;6.00;;;5.00;;
74177;SDS011;62540;48.456;-4.456;2023-04-03T06:24:16;4.25;;;4.25;;
74177;SDS011;62540;48.456;-4.456;2023-04-03T06:26:46;5.00;;;5.00;;
74177;SDS011;62540;48.456;-4.456;2023-04-03T06:29:12;6.25;;;5.25;;
74177;SDS011;62540;48.456;-4.456;2023-04-03T06:31:37;4.25;;;3.50;;
74177;SDS011;62540;48.456;-4.456;2023-04-03T06:34:04;6.00;;;5.25;;
74177;SDS011;62540;48.456;-4.456;2023-04-03T06:36:29;4.50;;;4.50;;
74177;SDS011;62540;48.456;-4.456;2023-04-03T06:38:55;7.25;;;7.00;;
74177;SDS011;62540;48.456;-4.456;2023-04-03T06:41:20;5.00;;;5.00;;
74177;SDS011;62540;48.456;-4.456;2023-04-03T06:43:46;8.50;;;7.25;;
74177;SDS011;62540;48.456;-4.456;2023-04-03T06:46:19;7.25;;;6.00;;
74177;SDS011;62540;48.456;-4.456;2023-04-03T06:48:46;5.75;;;5.75;;
74177;SDS011;62540;48.456;-4.456;2023-04-03T06:51:21;6.75;;;6.75;;
74177;SDS011;62540;48.456;-4.456;2023-04-03T06:53:49;8.25;;;6.50;;
74177;SDS011;62540;48.456;-4.456;2023-04-03T06:56:16;7.50;;;6.00;;
74177;SDS011;62540;48.456;-4.456;2023-04-03T06:58:42;7.00;;;6.00;;
74177;SDS011;62540;48.456;-4.456;2023-04-03T07:01:12;7.00;;;7.00;;
74177;SDS011;62540;48.456;-4.456;2023-04-03T07:03:40;9.25;;;6.75;;
74177;SDS011;62540;48.456;-4.456;2023-04-03T07:06:06;9.75;;;6.50;;
74177;SDS011;62540;48.456;-4.456;2023-04-03T07:08:35;6.00;;;4.25;;
74177;SDS011;62540;48.456;-4.456;2023-04-03T07:11:01;8.00;;;7.25;;
74177;SDS011;62540;48.456;-4.456;2023-04-03T07:13:27;7.50;;;7.00;;
74177;SDS011;62540;48.456;-4.456;2023-04-03T07:15:52;7.75;;;7.75;;
74177;SDS011;62540;48.456;-4.456;2023-04-03T07:18:17;9.00;;;7.00;;
74177;SDS011;62540;48.456;-4.456;2023-04-03T07:20:43;7.00;;;7.00;;
74177;SDS011;62540;48.456;-4.456;2023-04-03T07:23:09;8.50;;;7.75;;
74177;SDS011;62540;48.456;-4.456;2023-04-03T07:25:35;9.50;;;8.75;;
74177;SDS011;62540;48.456;-4.456;2023-04-03T07:28:00;7.25;;;7.25;;
74177;SDS011;62540;48.456;-4.456;2023-04-03T07:30:26;10.00;;;7.25;;
74177;SDS011;62540;48.456;-4.456;2023-04-03T07:32:52;8.00;;;7.50;;
74177;SDS011;62540;48.456;-4.456;2023-04-03T07:35:17;7.00;;;7.00;;
74177;SDS011;62540;48.456;-4.456;2023-04-03T07:37:43;6.75;;;6.75;;
74177;SDS011;62540;48.456;-4.456;2023-04-03T07:40:09;8.00;;;6.00;;
74177;SDS011;62540;48.456;-4.456;2023-04-03T07:42:36;6.00;;;6.00;;
74177;SDS011;62540;48.456;-4.456;2023-04-03T07:45:02;4.50;;;4.00;;
74177;SDS011;62540;48.456;-4.456;2023-04-03T07:47:29;7.00;;;6.00;;
74177;SDS011;62540;48.456;-4.456;2023-04-03T07:49:56;7.00;;;7.00;;
74177;SDS011;62540;48.456;-4.456;2023-04-03T07:52:22;4.75;;;4.50;;
74177;SDS011;62540;48.456;-4.456;2023-04-03T07:54:47;7.50;;;6.75;;
74177;SDS011;62540;48.456;-4.456;2023-04-03T07:57:13;4.00;;;4.00;;
74177;SDS011;62540;48.456;-4.456;2023-04-03T07:59:41;6.75;;;5.00;;
74177;SDS011;62540;48.456;-4.456;2023-04-03T08:02:10;6.75;;;5.75;;
74177;SDS011;62540;48.456;-4.456;2023-04-03T08:04:36;9.00;;;6.75;;
74177;SDS011;62540;48.456;-4.456;2023-04-03T08:07:02;5.25;;;4.25;;
74177;SDS011;62540;48.456;-4.456;2023-04-03T08:09:27;9.25;;;7.00;;
74177;SDS011;62540;48.456;-4.456;2023-04-03T08:11:53;7.75;;;5.25;;
74177;SDS011;62540;48.456;-4.456;2023-04-03T08:14:18;4.75;;;4.00;;
74177;SDS011;62540;48.456;-4.456;2023-04-03T08:16:44;6.75;;;5.00;;
74177;SDS011;62540;48.456;-4.456;2023-04-03T08:19:11;5.00;;;5.00;;
74177;SDS011;62540;48.456;-4.456;2023-04-03T08:21:38;6.75;;;5.00;;
74177;SDS011;62540;48.456;-4.456;2023-04-03T08:24:06;7.00;;;4.50;;
74177;SDS011;62540;48.456;-4.456;2023-04-03T08:26:32;6.00;;;5.00;;
74177;SDS011;62540;48.456;-4.456;2023-04-03T08:28:57;6.75;;;5.00;;
74177;SDS011;62540;48.456;-4.456;2023-04-03T08:31:22;8.25;;;7.00;;
74177;SDS011;62540;48.456;-4.456;2023-04-03T08:33:48;4.75;;;4.25;;
74177;SDS011;62540;48.456;-4.456;2023-04-03T08:36:18;8.00;;;5.75;;
74177;SDS011;62540;48.456;-4.456;2023-04-03T08:38:51;6.75;;;6.00;;
74177;SDS011;62540;48.456;-4.456;2023-04-03T08:44:13;9.25;;;5.75;;
74177;SDS011;62540;48.456;-4.456;2023-04-03T08:49:30;6.00;;;4.00;;
74177;SDS011;62540;48.456;-4.456;2023-04-03T08:51:59;7.00;;;6.25;;
74177;SDS011;62540;48.456;-4.456;2023-04-03T08:57:04;5.25;;;4.25;;
74177;SDS011;62540;48.456;-4.456;2023-04-03T08:59:33;7.00;;;4.50;;
74177;SDS011;62540;48.456;-4.456;2023-04-03T09:02:02;7.75;;;6.50;;
74177;SDS011;62540;48.456;-4.456;2023-04-03T09:04:48;7.50;;;6.50;;
74177;SDS011;62540;48.456;-4.456;2023-04-03T09:07:15;5.75;;;4.50;;
74177;SDS011;62540;48.456;-4.456;2023-04-03T09:09:47;4.00;;;3.00;;
74177;SDS011;62540;48.456;-4.456;2023-04-03T09:12:21;3.75;;;3.25;;
74177;SDS011;62540;48.456;-4.456;2023-04-03T09:15:15;4.00;;;4.00;;
74177;SDS011;62540;48.456;-4.456;2023-04-03T09:26:19;7.00;;;7.00;;
74177;SDS011;62540;48.456;-4.456;2023-04-03T09:29:18;4.00;;;4.00;;
74177;SDS011;62540;48.456;-4.456;2023-04-03T09:31:51;1.75;;;1.00;;
74177;SDS011;62540;48.456;-4.456;2023-04-03T09:34:25;4.00;;;3.75;;
74177;SDS011;62540;48.456;-4.456;2023-04-03T09:36:53;5.25;;;4.00;;
74177;SDS011;62540;48.456;-4.456;2023-04-03T09:39:27;8.00;;;6.00;;
74177;SDS011;62540;48.456;-4.456;2023-04-03T09:42:04;6.25;;;5.75;;
74177;SDS011;62540;48.456;-4.456;2023-04-03T09:44:32;4.00;;;4.00;;
74177;SDS011;62540;48.456;-4.456;2023-04-03T09:47:35;6.25;;;6.00;;
74177;SDS011;62540;48.456;-4.456;2023-04-03T09:52:38;4.75;;;4.75;;
74177;SDS011;62540;48.456;-4.456;2023-04-03T09:55:06;4.50;;;4.50;;
74177;SDS011;62540;48.456;-4.456;2023-04-03T09:57:33;4.75;;;4.00;;
74177;SDS011;62540;48.456;-4.456;2023-04-03T09:59:59;6.00;;;4.75;;
74177;SDS011;62540;48.456;-4.456;2023-04-03T10:05:03;5.25;;;4.25;;
74177;SDS011;62540;48.456;-4.456;2023-04-03T10:07:49;4.00;;;4.00;;
74177;SDS011;62540;48.456;-4.456;2023-04-03T10:10:20;6.75;;;5.25;;
74177;SDS011;62540;48.456;-4.456;2023-04-03T10:12:48;5.25;;;4.50;;
74177;SDS011;62540;48.456;-4.456;2023-04-03T10:15:42;2.50;;;2.50;;
74177;SDS011;62540;48.456;-4.456;2023-04-03T10:23:54;4.00;;;3.25;;
74177;SDS011;62540;48.456;-4.456;2023-04-03T10:26:44;4.50;;;3.25;;
74177;SDS011;62540;48.456;-4.456;2023-04-03T10:34:37;3.00;;;2.00;;
74177;SDS011;62540;48.456;-4.456;2023-04-03T10:42:43;4.00;;;3.00;;
74177;SDS011;62540;48.456;-4.456;2023-04-03T10:53:24;3.50;;;3.50;;
74177;SDS011;62540;48.456;-4.456;2023-04-03T10:58:40;3.75;;;3.00;;
74177;SDS011;62540;48.456;-4.456;2023-04-03T11:01:12;3.25;;;3.00;;
74177;SDS011;62540;48.456;-4.456;2023-04-03T11:03:43;4.75;;;4.75;;
74177;SDS011;62540;48.456;-4.456;2023-04-03T11:06:16;3.00;;;3.00;;
74177;SDS011;62540;48.456;-4.456;2023-04-03T11:11:24;5.25;;;2.00;;
74177;SDS011;62540;48.456;-4.456;2023-04-03T11:17:11;1.75;;;1.75;;
74177;SDS011;62540;48.456;-4.456;2023-04-03T11:19:52;3.00;;;2.00;;
74177;SDS011;62540;48.456;-4.456;2023-04-03T11:22:23;2.25;;;2.00;;
74177;SDS011;62540;48.456;-4.456;2023-04-03T11:24:56;3.25;;;3.00;;
74177;SDS011;62540;48.456;-4.456;2023-04-03T11:27:27;3.00;;;3.00;;
74177;SDS011;62540;48.456;-4.456;2023-04-03T11:30:00;4.50;;;3.50;;
74177;SDS011;62540;48.456;-4.456;2023-04-03T11:34:58;3.50;;;2.00;;
74177;SDS011;62540;48.456;-4.456;2023-04-03T11:40:04;4.00;;;2.00;;
74177;SDS011;62540;48.456;-4.456;2023-04-03T11:42:38;4.00;;;3.00;;
74177;SDS011;62540;48.456;-4.456;2023-04-03T11:47:53;4.00;;;3.00;;
74177;SDS011;62540;48.456;-4.456;2023-04-03T12:05:50;4.00;;;3.25;;
74177;SDS011;62540;48.456;-4.456;2023-04-03T12:16:06;2.50;;;2.25;;
74177;SDS011;62540;48.456;-4.456;2023-04-03T12:24:03;1.75;;;1.75;;
74177;SDS011;62540;48.456;-4.456;2023-04-03T12:40:57;1.00;;;1.00;;
74177;SDS011;62540;48.456;-4.456;2023-04-03T12:48:34;3.25;;;3.00;;
74177;SDS011;62540;48.456;-4.456;2023-04-03T12:51:04;2.50;;;2.50;;
74177;SDS011;62540;48.456;-4.456;2023-04-03T12:53:34;2.75;;;2.00;;
74177;SDS011;62540;48.456;-4.456;2023-04-03T12:56:21;5.00;;;4.25;;
74177;SDS011;62540;48.456;-4.456;2023-04-03T12:58:52;4.25;;;2.50;;
74177;SDS011;62540;48.456;-4.456;2023-04-03T13:01:23;3.50;;;2.50;;
74177;SDS011;62540;48.456;-4.456;2023-04-03T13:03:54;3.75;;;3.75;;
74177;SDS011;62540;48.456;-4.456;2023-04-03T13:06:26;4.00;;;4.00;;
74177;SDS011;62540;48.456;-4.456;2023-04-03T13:08:57;2.00;;;1.75;;
74177;SDS011;62540;48.456;-4.456;2023-04-03T13:11:25;3.00;;;3.00;;
74177;SDS011;62540;48.456;-4.456;2023-04-03T13:16:22;4.00;;;3.75;;
74177;SDS011;62540;48.456;-4.456;2023-04-03T13:18:52;4.50;;;3.75;;
74177;SDS011;62540;48.456;-4.456;2023-04-03T13:21:25;3.00;;;3.00;;
74177;SDS011;62540;48.456;-4.456;2023-04-03T13:23:57;3.50;;;3.50;;
74177;SDS011;62540;48.456;-4.456;2023-04-03T13:26:29;6.00;;;6.00;;
74177;SDS011;62540;48.456;-4.456;2023-04-03T13:29:02;4.00;;;4.00;;
74177;SDS011;62540;48.456;-4.456;2023-04-03T13:31:35;4.25;;;4.25;;
74177;SDS011;62540;48.456;-4.456;2023-04-03T13:34:05;5.25;;;5.00;;
74177;SDS011;62540;48.456;-4.456;2023-04-03T13:41:41;4.50;;;3.75;;
74177;SDS011;62540;48.456;-4.456;2023-04-03T13:46:45;5.50;;;5.50;;
74177;SDS011;62540;48.456;-4.456;2023-04-03T13:49:22;7.25;;;7.25;;
74177;SDS011;62540;48.456;-4.456;2023-04-03T13:51:56;7.50;;;6.00;;
74177;SDS011;62540;48.456;-4.456;2023-04-03T13:54:31;6.50;;;5.50;;
74177;SDS011;62540;48.456;-4.456;2023-04-03T13:57:00;5.25;;;4.75;;
74177;SDS011;62540;48.456;-4.456;2023-04-03T13:59:30;7.25;;;6.50;;
74177;SDS011;62540;48.456;-4.456;2023-04-03T14:04:32;6.00;;;5.00;;
74177;SDS011;62540;48.456;-4.456;2023-04-03T14:07:01;4.50;;;4.25;;
74177;SDS011;62540;48.456;-4.456;2023-04-03T14:09:27;3.75;;;3.50;;
74177;SDS011;62540;48.456;-4.456;2023-04-03T14:11:54;5.50;;;5.50;;
74177;SDS011;62540;48.456;-4.456;2023-04-03T14:14:24;8.50;;;7.25;;
74177;SDS011;62540;48.456;-4.456;2023-04-03T14:16:54;10.00;;;9.00;;
74177;SDS011;62540;48.456;-4.456;2023-04-03T14:19:31;6.25;;;6.25;;
74177;SDS011;62540;48.456;-4.456;2023-04-03T14:21:59;7.75;;;7.00;;
74177;SDS011;62540;48.456;-4.456;2023-04-03T14:24:28;3.50;;;3.25;;
74177;SDS011;62540;48.456;-4.456;2023-04-03T14:26:54;9.50;;;9.50;;
74177;SDS011;62540;48.456;-4.456;2023-04-03T14:29:20;5.25;;;4.25;;
74177;SDS011;62540;48.456;-4.456;2023-04-03T14:31:46;9.50;;;9.00;;
74177;SDS011;62540;48.456;-4.456;2023-04-03T14:34:13;10.50;;;8.75;;
74177;SDS011;62540;48.456;-4.456;2023-04-03T14:36:40;9.75;;;9.50;;
74177;SDS011;62540;48.456;-4.456;2023-04-03T14:39:07;9.75;;;8.75;;
74177;SDS011;62540;48.456;-4.456;2023-04-03T14:41:36;10.50;;;10.50;;
74177;SDS011;62540;48.456;-4.456;2023-04-03T14:44:02;11.25;;;10.50;;
74177;SDS011;62540;48.456;-4.456;2023-04-03T14:46:29;11.25;;;9.50;;
74177;SDS011;62540;48.456;-4.456;2023-04-03T14:48:57;11.25;;;9.75;;
74177;SDS011;62540;48.456;-4.456;2023-04-03T14:51:23;9.75;;;9.25;;
74177;SDS011;62540;48.456;-4.456;2023-04-03T14:53:49;10.00;;;9.25;;
74177;SDS011;62540;48.456;-4.456;2023-04-03T14:56:34;10.00;;;9.25;;
74177;SDS011;62540;48.456;-4.456;2023-04-03T14:59:00;13.75;;;12.00;;
74177;SDS011;62540;48.456;-4.456;2023-04-03T15:01:26;12.00;;;11.50;;
74177;SDS011;62540;48.456;-4.456;2023-04-03T15:03:53;12.50;;;11.25;;
74177;SDS011;62540;48.456;-4.456;2023-04-03T15:06:18;17.00;;;14.75;;
74177;SDS011;62540;48.456;-4.456;2023-04-03T15:08:45;13.75;;;11.00;;
74177;SDS011;62540;48.456;-4.456;2023-04-03T15:11:12;16.00;;;15.00;;
74177;SDS011;62540;48.456;-4.456;2023-04-03T15:13:39;14.25;;;12.25;;
74177;SDS011;62540;48.456;-4.456;2023-04-03T15:16:06;10.50;;;10.00;;
74177;SDS011;62540;48.456;-4.456;2023-04-03T15:18:40;13.75;;;13.25;;
74177;SDS011;62540;48.456;-4.456;2023-04-03T15:21:05;14.50;;;13.50;;
74177;SDS011;62540;48.456;-4.456;2023-04-03T15:23:31;15.00;;;15.00;;
74177;SDS011;62540;48.456;-4.456;2023-04-03T15:25:56;17.00;;;15.75;;
74177;SDS011;62540;48.456;-4.456;2023-04-03T15:28:32;16.25;;;14.75;;
74177;SDS011;62540;48.456;-4.456;2023-04-03T15:31:03;16.00;;;15.00;;
74177;SDS011;62540;48.456;-4.456;2023-04-03T15:33:29;15.25;;;14.75;;
74177;SDS011;62540;48.456;-4.456;2023-04-03T15:35:55;15.00;;;15.00;;
74177;SDS011;62540;48.456;-4.456;2023-04-03T15:38:20;18.25;;;17.25;;
74177;SDS011;62540;48.456;-4.456;2023-04-03T15:40:46;18.50;;;17.25;;
74177;SDS011;62540;48.456;-4.456;2023-04-03T15:43:14;17.75;;;15.75;;
74177;SDS011;62540;48.456;-4.456;2023-04-03T15:45:40;23.00;;;21.50;;
74177;SDS011;62540;48.456;-4.456;2023-04-03T15:48:06;16.75;;;15.50;;
74177;SDS011;62540;48.456;-4.456;2023-04-03T15:50:32;16.50;;;15.25;;
74177;SDS011;62540;48.456;-4.456;2023-04-03T15:52:59;19.00;;;16.75;;
74177;SDS011;62540;48.456;-4.456;2023-04-03T15:55:26;22.25;;;19.25;;
74177;SDS011;62540;48.456;-4.456;2023-04-03T15:57:53;22.25;;;18.75;;
74177;SDS011;62540;48.456;-4.456;2023-04-03T16:00:20;22.25;;;20.50;;
74177;SDS011;62540;48.456;-4.456;2023-04-03T16:02:46;22.25;;;19.25;;
74177;SDS011;62540;48.456;-4.456;2023-04-03T16:05:15;21.00;;;21.00;;
74177;SDS011;62540;48.456;-4.456;2023-04-03T16:07:42;20.75;;;18.50;;
74177;SDS011;62540;48.456;-4.456;2023-04-03T16:10:11;30.00;;;28.25;;
74177;SDS011;62540;48.456;-4.456;2023-04-03T16:12:39;30.75;;;27.50;;
74177;SDS011;62540;48.456;-4.456;2023-04-03T16:15:05;33.75;;;28.75;;
74177;SDS011;62540;48.456;-4.456;2023-04-03T16:17:31;30.25;;;28.00;;
74177;SDS011;62540;48.456;-4.456;2023-04-03T16:19:58;29.25;;;27.25;;
74177;SDS011;62540;48.456;-4.456;2023-04-03T16:22:24;30.50;;;29.00;;
74177;SDS011;62540;48.456;-4.456;2023-04-03T16:24:52;28.00;;;25.25;;
74177;SDS011;62540;48.456;-4.456;2023-04-03T16:27:18;34.50;;;31.75;;
74177;SDS011;62540;48.456;-4.456;2023-04-03T16:29:43;34.75;;;31.00;;
74177;SDS011;62540;48.456;-4.456;2023-04-03T16:32:09;30.25;;;27.75;;
74177;SDS011;62540;48.456;-4.456;2023-04-03T16:34:34;41.25;;;32.50;;
74177;SDS011;62540;48.456;-4.456;2023-04-03T16:37:00;36.25;;;31.50;;